Time;durP1;ratioP1;P1;durP2;ratioP2;P2;SDS_P1;SDS_P2;PMS_P1;PMS_P2;Temp;Humidity;BMP_temperature;BMP_pressure;BME280_temperature;BME280_humidity;BME280_pressure;Samples;Min_cycle;Max_cycle;Signal;HPM_P1;HPM_P2
2022/12/06 00:01:40;;;;;;;0.00;0.00;;;;;;;6.57;86.30;101145.41;6151392;23;20005;-75
2022/12/06 00:04:14;;;;;;;0.00;0.00;;;;;;;6.60;85.61;101162.09;6180876;23;20328;-74
2022/12/06 00:06:51;;;;;;;0.00;0.00;;;;;;;6.49;85.90;101148.41;6151564;23;20005;-76
2022/12/06 00:09:20;;;;;;;0.00;0.00;;;;;;;6.62;86.12;101170.84;6153687;23;20020;-74
2022/12/06 00:11:46;;;;;;;0.00;0.00;;;;;;;6.61;86.18;101165.66;6154953;23;20067;-77
2022/12/06 00:14:12;;;;;;;0.00;0.00;;;;;;;6.64;85.75;101167.91;6182951;23;20553;-76
2022/12/06 00:16:38;;;;;;;0.00;0.00;;;;;;;6.62;85.33;101161.88;6150103;23;20005;-75
2022/12/06 00:19:04;;;;;;;0.00;0.00;;;;;;;6.60;85.61;101155.81;6150917;23;20112;-75
2022/12/06 00:21:35;;;;;;;0.00;0.00;;;;;;;6.57;85.14;101156.28;6157356;23;20005;-78
2022/12/06 00:24:04;;;;;;;0.00;0.00;;;;;;;6.54;85.77;101156.72;6149305;23;20028;-75
2022/12/06 00:26:30;;;;;;;0.00;0.00;;;;;;;6.43;85.92;101147.41;6152389;23;20411;-75
2022/12/06 00:28:58;;;;;;;0.00;0.00;;;;;;;6.40;86.02;101145.13;6182922;23;20013;-76
2022/12/06 00:31:26;;;;;;;0.00;0.00;;;;;;;6.34;86.07;101146.84;6151826;23;20009;-73
2022/12/06 00:33:52;;;;;;;0.00;0.00;;;;;;;6.37;86.11;101145.56;6152545;23;20497;-75
2022/12/06 00:36:27;;;;;;;0.00;0.00;;;;;;;6.35;86.31;101132.22;6178318;23;20048;-74
2022/12/06 00:38:53;;;;;;;0.00;0.00;;;;;;;6.28;86.16;101121.38;6155327;23;20013;-74
2022/12/06 00:41:23;;;;;;;0.00;0.00;;;;;;;6.33;86.21;101128.88;6146745;23;20371;-73
2022/12/06 00:43:49;;;;;;;0.00;0.00;;;;;;;6.34;86.75;101140.56;6132681;23;20055;-74
2022/12/06 00:46:18;;;;;;;0.00;0.00;;;;;;;6.41;85.97;101136.75;6150579;23;20001;-74
2022/12/06 00:48:44;;;;;;;0.00;0.00;;;;;;;6.41;86.09;101128.59;6153280;23;20012;-75
2022/12/06 00:51:10;;;;;;;0.00;0.00;;;;;;;6.40;86.12;101132.38;6127967;23;20005;-74
2022/12/06 00:53:36;;;;;;;0.00;0.00;;;;;;;6.43;85.55;101134.63;6152976;23;20048;-75
2022/12/06 00:56:02;;;;;;;0.00;0.00;;;;;;;6.39;86.32;101117.13;6129423;23;20013;-74
2022/12/06 00:58:27;;;;;;;0.00;0.00;;;;;;;6.33;86.04;101109.84;6148559;23;20704;-74
2022/12/06 01:00:53;;;;;;;0.00;0.00;;;;;;;6.43;86.16;101128.38;6158122;23;20013;-75
2022/12/06 01:03:19;;;;;;;0.00;0.00;;;;;;;6.36;85.97;101130.31;6149029;23;20040;-74
2022/12/06 01:05:49;;;;;;;0.00;0.00;;;;;;;6.34;86.54;101126.97;6152958;23;20024;-74
2022/12/06 01:08:16;;;;;;;0.00;0.00;;;;;;;6.35;87.16;101115.06;6151536;23;20005;-74
2022/12/06 01:10:51;;;;;;;0.00;0.00;;;;;;;6.33;86.56;101118.00;6130063;23;20001;-75
2022/12/06 01:13:16;;;;;;;0.00;0.00;;;;;;;6.35;87.13;101113.19;6152347;23;20005;-77
2022/12/06 01:15:42;;;;;;;0.00;0.00;;;;;;;6.20;86.68;101090.94;6103732;23;20012;-75
2022/12/06 01:18:07;;;;;;;0.00;0.00;;;;;;;6.33;86.87;101117.19;6155076;23;20609;-75
2022/12/06 01:20:35;;;;;;;0.00;0.00;;;;;;;6.28;86.61;101105.09;6176904;23;20009;-77
2022/12/06 01:23:00;;;;;;;0.00;0.00;;;;;;;6.25;86.72;101110.13;6154754;23;20427;-79
2022/12/06 01:25:26;;;;;;;0.10;0.10;;;;;;;6.15;86.60;101098.91;6105878;23;20008;-79
2022/12/06 01:27:51;;;;;;;0.00;0.00;;;;;;;6.15;86.61;101101.63;6129747;23;20013;-78
2022/12/06 01:30:17;;;;;;;0.00;0.00;;;;;;;6.16;86.96;101114.16;6153113;23;20332;-81
2022/12/06 01:32:42;;;;;;;0.00;0.00;;;;;;;6.06;86.89;101107.34;6154302;23;20020;-79
2022/12/06 01:35:08;;;;;;;0.00;0.00;;;;;;;6.10;87.13;101111.28;6106729;23;20424;-80
2022/12/06 01:37:33;;;;;;;0.00;0.00;;;;;;;6.05;86.97;101100.25;6129339;23;20091;-79
2022/12/06 01:39:58;;;;;;;0.00;0.00;;;;;;;6.09;87.59;101100.66;6104191;23;20017;-77
2022/12/06 01:42:24;;;;;;;0.00;0.00;;;;;;;6.04;87.08;101098.56;6108481;23;20020;-77
2022/12/06 01:45:08;;;;;;;0.00;0.00;;;;;;;5.94;87.25;101088.19;6149535;23;20083;-78
2022/12/06 01:47:40;;;;;;;0.10;0.10;;;;;;;6.00;86.68;101086.50;6133629;23;20017;-79
2022/12/06 01:50:23;;;;;;;0.00;0.00;;;;;;;6.10;86.85;101108.56;6177747;23;20016;-79
2022/12/06 01:53:00;;;;;;;0.00;0.00;;;;;;;6.12;86.82;101111.06;6155413;23;20427;-77
2022/12/06 01:55:29;;;;;;;0.00;0.00;;;;;;;6.17;86.61;101113.13;6155217;23;20012;-77
2022/12/06 01:57:59;;;;;;;0.00;0.00;;;;;;;6.21;86.37;101108.91;6151976;23;20101;-78
2022/12/06 02:00:24;;;;;;;0.00;0.00;;;;;;;6.17;86.46;101102.25;6152856;23;20009;-78
2022/12/06 02:02:49;;;;;;;0.00;0.00;;;;;;;6.08;86.04;101083.50;6129072;23;20031;-78
2022/12/06 02:05:16;;;;;;;0.00;0.00;;;;;;;6.13;85.60;101107.28;6125294;23;20625;-79
2022/12/06 02:07:43;;;;;;;0.00;0.00;;;;;;;6.11;85.72;101098.53;6154415;23;20008;-78
2022/12/06 02:10:09;;;;;;;0.00;0.00;;;;;;;6.07;85.84;101089.97;6150507;23;20012;-79
2022/12/06 02:12:35;;;;;;;0.00;0.00;;;;;;;6.04;85.65;101093.13;6154893;23;20005;-79
2022/12/06 02:15:00;;;;;;;0.00;0.00;;;;;;;5.99;86.09;101090.25;6126178;23;20013;-78
2022/12/06 02:17:38;;;;;;;0.00;0.00;;;;;;;6.03;85.84;101105.06;6154210;23;20376;-80
2022/12/06 02:20:35;;;;;;;0.00;0.00;;;;;;;5.96;86.10;101098.81;6180543;23;20140;-77
2022/12/06 02:23:29;;;;;;;0.00;0.00;;;;;;;5.91;86.43;101104.91;6148765;23;20384;-79
2022/12/06 02:26:33;;;;;;;0.00;0.00;;;;;;;5.90;86.16;101108.66;6152805;23;20005;-78
2022/12/06 02:29:21;;;;;;;0.10;0.10;;;;;;;5.87;85.76;101111.81;6118809;23;20139;-78
2022/12/06 02:31:58;;;;;;;0.00;0.00;;;;;;;5.83;86.92;101112.47;6181535;23;20012;-78
2022/12/06 02:34:38;;;;;;;0.00;0.00;;;;;;;5.75;86.47;101111.69;6148942;23;20019;-77
2022/12/06 02:37:21;;;;;;;0.00;0.00;;;;;;;5.71;86.31;101110.44;6182134;23;20750;-77
2022/12/06 02:39:53;;;;;;;0.00;0.00;;;;;;;5.64;87.16;101104.22;6150822;23;20008;-78
2022/12/06 02:42:25;;;;;;;0.00;0.00;;;;;;;5.57;86.88;101108.84;6147750;23;20013;-77
2022/12/06 02:45:00;;;;;;;0.00;0.00;;;;;;;5.51;86.77;101104.28;6150828;23;20689;-76
2022/12/06 02:47:31;;;;;;;0.00;0.00;;;;;;;5.44;87.10;101098.88;6131008;23;20005;-79
2022/12/06 02:49:58;;;;;;;0.00;0.00;;;;;;;5.45;86.61;101100.53;6180760;23;20005;-78
2022/12/06 02:52:26;;;;;;;0.05;0.05;;;;;;;5.45;87.65;101110.53;6179292;23;20031;-79
2022/12/06 02:54:56;;;;;;;0.00;0.00;;;;;;;5.40;87.00;101109.34;6152793;23;20008;-77
2022/12/06 02:57:38;;;;;;;0.00;0.00;;;;;;;5.37;88.04;101103.50;6156363;23;20032;-77
2022/12/06 03:00:32;;;;;;;0.00;0.00;;;;;;;5.33;87.73;101108.53;6153171;23;20367;-80
2022/12/06 03:03:22;;;;;;;0.00;0.00;;;;;;;5.24;87.62;101102.50;6181447;23;20003;-79
2022/12/06 03:06:39;;;;;;;0.00;0.00;;;;;;;5.26;88.19;101107.72;6155815;23;20013;-78
2022/12/06 03:09:04;;;;;;;0.00;0.00;;;;;;;5.27;88.64;101103.97;6153250;23;20019;-78
2022/12/06 03:11:45;;;;;;;0.00;0.00;;;;;;;5.29;88.46;101104.56;6182012;23;20328;-77
2022/12/06 03:14:17;;;;;;;0.08;0.08;;;;;;;5.22;88.20;101095.63;6149524;23;20383;-78
2022/12/06 03:17:26;;;;;;;0.00;0.00;;;;;;;5.31;87.59;101110.59;6152448;23;20009;-78
2022/12/06 03:20:01;;;;;;;0.00;0.00;;;;;;;5.34;88.06;101110.16;6113137;23;20020;-79
2022/12/06 03:22:34;;;;;;;0.00;0.00;;;;;;;5.30;88.22;101106.25;6151080;23;20097;-78
2022/12/06 03:25:02;;;;;;;0.10;0.10;;;;;;;5.31;87.68;101107.06;6154223;23;20004;-77
2022/12/06 03:27:30;;;;;;;0.00;0.00;;;;;;;5.23;87.44;101102.72;6149874;23;20043;-78
2022/12/06 03:29:59;;;;;;;0.00;0.00;;;;;;;5.31;87.82;101116.03;6155901;23;20009;-78
2022/12/06 03:32:30;;;;;;;0.00;0.00;;;;;;;5.22;87.74;101101.06;6148203;23;20003;-78
2022/12/06 03:34:58;;;;;;;0.00;0.00;;;;;;;5.30;87.71;101102.69;6180808;23;20100;-78
2022/12/06 03:37:26;;;;;;;0.00;0.00;;;;;;;5.27;88.11;101103.97;6150337;23;20005;-77
2022/12/06 03:40:08;;;;;;;0.00;0.00;;;;;;;5.29;88.92;101107.28;6155790;23;20005;-78
2022/12/06 03:42:35;;;;;;;0.00;0.00;;;;;;;5.23;88.24;101098.13;6175664;23;20012;-78
2022/12/06 03:45:04;;;;;;;0.00;0.00;;;;;;;5.13;87.88;101075.22;6157844;23;20428;-79
2022/12/06 03:47:39;;;;;;;0.00;0.00;;;;;;;5.26;87.72;101096.88;6130890;23;20009;-78
2022/12/06 03:50:15;;;;;;;0.00;0.00;;;;;;;5.23;88.56;101097.31;6156737;23;20503;-77
2022/12/06 03:52:41;;;;;;;0.00;0.00;;;;;;;5.20;88.35;101092.31;6154133;23;20016;-80
2022/12/06 03:55:07;;;;;;;0.00;0.00;;;;;;;5.22;88.28;101101.06;6156093;23;20012;-79
2022/12/06 03:57:33;;;;;;;0.00;0.00;;;;;;;5.27;88.46;101103.97;6131679;23;20482;-77
2022/12/06 03:59:59;;;;;;;0.00;0.00;;;;;;;5.25;88.76;101100.63;6156209;23;20009;-79
2022/12/06 04:02:24;;;;;;;0.00;0.00;;;;;;;5.15;88.63;101095.63;6134010;23;20067;-78
2022/12/06 04:04:49;;;;;;;0.00;0.00;;;;;;;5.25;87.99;101108.75;6127282;23;20340;-77
2022/12/06 04:07:20;;;;;;;0.00;0.00;;;;;;;5.26;88.72;101110.44;6132784;23;20013;-78
2022/12/06 04:09:55;;;;;;;0.00;0.00;;;;;;;5.23;87.80;101102.72;6104537;23;20013;-77
2022/12/06 04:15:07;;;;;;;0.00;0.00;;;;;;;5.16;87.91;101107.34;6179020;23;20028;-77
2022/12/06 04:20:17;;;;;;;0.00;0.00;;;;;;;5.13;89.03;101102.34;6159724;23;20035;-78
2022/12/06 04:25:26;;;;;;;0.10;0.10;;;;;;;5.20;88.70;101108.56;6161922;23;20032;-78
2022/12/06 04:38:47;;;;;;;0.00;0.00;;;;;;;5.13;89.06;101107.75;6140864;23;20071;-78
2022/12/06 04:43:57;;;;;;;0.00;0.00;;;;;;;5.19;88.82;101117.75;6182298;23;20016;-79
2022/12/06 04:46:22;;;;;;;0.00;0.00;;;;;;;5.19;89.08;101113.16;6129966;23;20009;-78
2022/12/06 04:48:48;;;;;;;0.00;0.00;;;;;;;5.17;89.18;101119.81;6158601;23;20016;-78
2022/12/06 04:51:13;;;;;;;0.00;0.00;;;;;;;5.09;88.89;101111.94;6155999;23;20039;-77
2022/12/06 04:53:39;;;;;;;0.00;0.00;;;;;;;5.13;89.60;101124.03;6109514;23;20401;-77
2022/12/06 04:56:05;;;;;;;0.00;0.00;;;;;;;5.12;89.39;101123.19;6157725;23;20017;-77
2022/12/06 04:58:30;;;;;;;0.00;0.00;;;;;;;4.99;89.46;101096.94;6106008;23;20013;-76
2022/12/06 05:00:56;;;;;;;0.08;0.08;;;;;;;5.00;88.77;101106.75;6130325;23;20052;-78
2022/12/06 05:03:24;;;;;;;0.00;0.00;;;;;;;5.00;88.89;101114.88;6128717;23;21081;-77
2022/12/06 05:05:49;;;;;;;0.00;0.00;;;;;;;5.02;89.03;101114.66;6130360;23;20443;-77
2022/12/06 05:08:14;;;;;;;0.00;0.00;;;;;;;5.00;89.45;101109.44;6122363;23;20005;-78
2022/12/06 05:10:40;;;;;;;0.00;0.00;;;;;;;5.02;89.38;101107.38;6150487;23;20468;-77
2022/12/06 05:13:05;;;;;;;0.00;0.00;;;;;;;5.04;89.08;101113.41;6150181;23;20017;-77
2022/12/06 05:15:32;;;;;;;0.00;0.00;;;;;;;5.09;88.99;101117.38;6121729;23;20016;-77
2022/12/06 05:17:57;;;;;;;0.00;0.00;;;;;;;5.00;89.46;101098.59;6149332;23;20052;-76
2022/12/06 05:20:25;;;;;;;0.00;0.00;;;;;;;5.12;89.91;101100.66;6125298;23;20017;-77
2022/12/06 05:22:53;;;;;;;0.00;0.00;;;;;;;5.12;89.46;101097.97;6098573;23;20509;-80
2022/12/06 05:25:21;;;;;;;0.00;0.00;;;;;;;5.19;89.08;101117.75;6126130;23;19993;-76
2022/12/06 05:27:49;;;;;;;0.00;0.00;;;;;;;5.02;88.97;101085.69;6144797;23;20140;-77
2022/12/06 05:30:15;;;;;;;0.00;0.00;;;;;;;5.24;89.51;101115.22;6151124;23;20017;-77
2022/12/06 05:32:41;;;;;;;0.00;0.00;;;;;;;5.31;89.54;101116.03;6146465;23;20005;-76
2022/12/06 05:35:07;;;;;;;0.00;0.00;;;;;;;5.35;89.16;101114.56;6149824;23;20010;-77
2022/12/06 05:37:32;;;;;;;0.00;0.00;;;;;;;5.32;88.85;101104.13;6121863;23;20014;-76
2022/12/06 05:39:58;;;;;;;0.00;0.00;;;;;;;5.25;88.67;101111.47;6147871;23;20020;-76
2022/12/06 05:42:23;;;;;;;0.00;0.00;;;;;;;5.16;88.70;101099.19;6101443;23;20016;-77
2022/12/06 05:44:48;;;;;;;0.00;0.00;;;;;;;5.19;88.93;101109.63;6121578;23;20010;-77
2022/12/06 05:47:14;;;;;;;0.00;0.00;;;;;;;5.23;89.13;101106.25;6149556;23;20015;-77
2022/12/06 05:49:39;;;;;;;0.00;0.00;;;;;;;5.19;88.73;101107.72;6146381;23;20044;-76
2022/12/06 05:52:05;;;;;;;0.00;0.00;;;;;;;5.22;88.83;101109.19;6099912;23;20437;-75
2022/12/06 05:54:30;;;;;;;0.00;0.00;;;;;;;5.31;89.38;101118.75;6125041;23;20018;-75
2022/12/06 05:56:56;;;;;;;0.00;0.00;;;;;;;5.36;88.64;101118.94;6144300;23;20009;-77
2022/12/06 05:59:21;;;;;;;0.00;0.00;;;;;;;5.47;88.21;101119.31;6124675;23;20012;-77
2022/12/06 06:01:47;;;;;;;0.00;0.00;;;;;;;5.54;88.24;101120.94;6121025;23;20016;-79
2022/12/06 06:04:12;;;;;;;0.00;0.00;;;;;;;5.53;88.02;101123.88;6124750;23;20026;-76
2022/12/06 06:06:38;;;;;;;0.00;0.00;;;;;;;5.46;87.96;101117.66;6145057;23;20020;-77
2022/12/06 06:09:03;;;;;;;0.00;0.00;;;;;;;5.64;88.28;101125.91;6124524;23;20012;-77
2022/12/06 06:11:29;;;;;;;0.00;0.00;;;;;;;5.61;87.81;101118.22;6125226;23;20088;-77
2022/12/06 06:13:54;;;;;;;0.00;0.00;;;;;;;5.67;87.39;101125.50;6148772;23;20064;-77
2022/12/06 06:16:20;;;;;;;0.00;0.00;;;;;;;5.74;87.78;101123.56;6150219;23;20033;-77
2022/12/06 06:18:46;;;;;;;0.00;0.00;;;;;;;5.70;86.99;101107.94;6149451;23;20009;-77
2022/12/06 06:21:12;;;;;;;0.00;0.00;;;;;;;5.77;87.56;101119.59;6097454;23;20036;-76
2022/12/06 06:23:38;;;;;;;0.00;0.00;;;;;;;5.71;87.54;101109.59;6148297;23;20001;-78
2022/12/06 06:26:09;;;;;;;0.00;0.00;;;;;;;5.77;87.08;101120.41;6146064;23;20448;-77
2022/12/06 06:28:34;;;;;;;0.00;0.00;;;;;;;5.72;87.16;101112.13;6149335;23;20097;-77
2022/12/06 06:31:06;;;;;;;0.00;0.00;;;;;;;5.75;86.44;101117.09;6120474;23;20041;-77
2022/12/06 06:33:32;;;;;;;0.00;0.00;;;;;;;5.80;87.39;101119.16;6150084;23;20088;-76
2022/12/06 06:35:57;;;;;;;0.00;0.00;;;;;;;5.84;87.10;101109.53;6147787;23;20429;-78
2022/12/06 06:38:26;;;;;;;0.00;0.00;;;;;;;5.95;87.15;101124.28;6151226;23;20104;-77
2022/12/06 06:40:51;;;;;;;0.00;0.00;;;;;;;5.87;85.89;101113.69;6125306;23;20110;-76
2022/12/06 06:43:19;;;;;;;0.00;0.00;;;;;;;5.85;86.81;101104.94;6122094;23;20437;-77
2022/12/06 06:45:50;;;;;;;0.00;0.00;;;;;;;5.92;86.63;101105.72;6148957;23;20052;-77
2022/12/06 06:48:15;;;;;;;0.05;0.05;;;;;;;5.95;86.83;101110.72;6146596;23;20001;-77
2022/12/06 06:50:41;;;;;;;0.00;0.00;;;;;;;5.94;87.02;101098.19;6099389;23;20012;-76
2022/12/06 06:53:06;;;;;;;0.00;0.00;;;;;;;6.39;87.11;101125.25;6097491;23;20005;-76
2022/12/06 06:55:35;;;;;;;0.00;0.00;;;;;;;6.43;85.58;101121.06;6149285;23;20010;-76
2022/12/06 06:58:01;;;;;;;0.00;0.00;;;;;;;6.36;85.24;101120.28;6149467;23;20076;-75
2022/12/06 07:00:29;;;;;;;0.00;0.00;;;;;;;6.33;85.41;101118.00;6149975;23;20009;-76
2022/12/06 07:02:54;;;;;;;0.00;0.00;;;;;;;6.32;85.07;101119.03;6147587;23;20012;-77
2022/12/06 07:05:20;;;;;;;0.00;0.00;;;;;;;6.19;85.31;101108.28;6147622;23;20026;-77
2022/12/06 07:07:46;;;;;;;0.00;0.00;;;;;;;6.22;86.08;101113.28;6147669;23;20025;-76
2022/12/06 07:10:14;;;;;;;0.00;0.00;;;;;;;6.23;85.47;101110.34;6143408;23;20014;-75
2022/12/06 07:12:40;;;;;;;0.00;0.00;;;;;;;6.19;85.18;101116.44;6153397;23;19997;-75
2022/12/06 07:15:06;;;;;;;0.00;0.00;;;;;;;6.08;85.36;101104.41;6151287;23;20004;-77
2022/12/06 07:17:32;;;;;;;0.00;0.00;;;;;;;6.09;85.86;101108.78;6181492;23;20005;-80
2022/12/06 07:19:57;;;;;;;0.00;0.00;;;;;;;6.56;85.30;101132.88;6154400;23;20439;-78
2022/12/06 07:22:22;;;;;;;0.00;0.00;;;;;;;6.61;84.29;101116.72;6152133;23;20059;-79
2022/12/06 07:24:48;;;;;;;0.00;0.00;;;;;;;6.73;84.14;101112.25;6153855;23;20009;-80
2022/12/06 07:27:14;;;;;;;0.00;0.00;;;;;;;6.75;82.82;101121.00;6153202;23;20008;-76
2022/12/06 07:29:39;;;;;;;0.00;0.00;;;;;;;6.61;82.99;101125.72;6150325;23;20043;-77
2022/12/06 07:32:05;;;;;;;0.00;0.00;;;;;;;6.55;84.21;101133.94;6126611;23;20344;-77
2022/12/06 07:34:31;;;;;;;0.00;0.00;;;;;;;6.49;83.99;101138.38;6125804;23;20087;-76
2022/12/06 07:36:56;;;;;;;0.00;0.00;;;;;;;6.34;84.24;101125.09;6153251;23;20367;-77
2022/12/06 07:39:22;;;;;;;0.00;0.00;;;;;;;6.39;84.93;101125.25;6148696;23;20005;-76
2022/12/06 07:47:15;;;;;;;0.00;0.00;;;;;;;6.42;84.56;101129.44;6178581;23;20016;-75
2022/12/06 07:49:41;;;;;;;0.00;0.00;;;;;;;6.54;84.66;101148.56;6148760;23;20545;-77
2022/12/06 07:52:06;;;;;;;0.00;0.00;;;;;;;6.49;84.66;101142.97;6177038;23;20063;-74
2022/12/06 07:54:31;;;;;;;0.00;0.00;;;;;;;6.49;84.66;101142.97;6127673;23;20312;-75
2022/12/06 07:56:59;;;;;;;0.00;0.00;;;;;;;6.34;84.92;101126.97;6099333;23;20036;-75
2022/12/06 07:59:26;;;;;;;0.00;0.00;;;;;;;6.31;84.92;101130.97;6151271;23;20023;-78
2022/12/06 08:01:51;;;;;;;0.00;0.00;;;;;;;6.25;85.32;101126.41;6147517;23;20048;-77
2022/12/06 08:04:17;;;;;;;0.00;0.00;;;;;;;6.22;85.18;101126.84;6152066;23;20021;-80
2022/12/06 08:06:42;;;;;;;0.00;0.00;;;;;;;6.16;85.02;101127.75;6152821;23;20005;-78
2022/12/06 08:09:13;;;;;;;0.00;0.00;;;;;;;6.05;84.86;101121.97;6155101;23;19997;-79
2022/12/06 08:11:38;;;;;;;0.00;0.00;;;;;;;5.98;84.93;101142.88;6150275;23;20012;-80
2022/12/06 08:14:04;;;;;;;0.00;0.00;;;;;;;5.76;85.67;101124.19;6152712;23;20008;-76
2022/12/06 08:16:30;;;;;;;0.00;0.00;;;;;;;5.69;85.90;101126.09;6153669;23;20081;-78
2022/12/06 08:18:56;;;;;;;0.00;0.00;;;;;;;5.70;86.13;101141.34;6148012;23;20009;-77
2022/12/06 08:21:22;;;;;;;0.00;0.00;;;;;;;5.63;86.81;101137.81;6153577;23;20011;-79
2022/12/06 08:23:47;;;;;;;0.00;0.00;;;;;;;5.55;87.05;101128.03;6178110;23;20076;-78
2022/12/06 08:26:14;;;;;;;0.00;0.00;;;;;;;5.56;87.02;101135.16;6150103;23;20001;-78
2022/12/06 08:28:42;;;;;;;0.00;0.00;;;;;;;5.55;87.15;101132.66;6151558;23;20015;-78
2022/12/06 08:31:18;;;;;;;0.00;0.00;;;;;;;5.67;87.17;101147.19;6125754;23;20005;-79
2022/12/06 08:33:45;;;;;;;0.00;0.00;;;;;;;5.69;87.71;101155.94;6153426;23;20096;-78
2022/12/06 08:36:15;;;;;;;0.00;0.00;;;;;;;5.67;87.04;101158.06;6151435;23;20755;-76
2022/12/06 08:38:40;;;;;;;0.00;0.00;;;;;;;5.69;87.49;101149.69;6155298;23;20016;-77
2022/12/06 08:41:54;;;;;;;0.00;0.00;;;;;;;5.72;87.45;101150.09;6150910;23;20328;-78
2022/12/06 08:43:57;;;;;;;0.00;0.00;;;;;;;5.80;87.81;101148.16;6181978;23;20013;-78
2022/12/06 08:46:23;;;;;;;0.00;0.00;;;;;;;5.92;87.93;101157.31;6152567;23;20016;-78
2022/12/06 08:48:49;;;;;;;0.00;0.00;;;;;;;5.88;87.60;101137.06;6153193;23;20005;-79
2022/12/06 08:51:15;;;;;;;0.00;0.00;;;;;;;5.91;87.20;101136.63;6152485;23;19997;-77
2022/12/06 08:53:40;;;;;;;0.00;0.00;;;;;;;5.91;86.76;101133.91;6182519;23;20113;-78
2022/12/06 08:56:06;;;;;;;0.00;0.00;;;;;;;5.97;86.50;101152.06;6128991;23;20017;-79
2022/12/06 08:58:44;;;;;;;0.00;0.00;;;;;;;6.01;86.68;101153.31;6133247;23;20317;-77
2022/12/06 09:01:18;;;;;;;0.00;0.00;;;;;;;6.06;85.65;101155.38;6156493;23;20096;-77
2022/12/06 09:07:12;;;;;;;0.00;0.00;;;;;;;6.09;84.39;101166.63;6141374;23;20047;-78
2022/12/06 09:13:54;;;;;;;0.00;0.00;;;;;;;5.88;84.62;101143.31;6133647;23;20104;-76
2022/12/06 09:26:44;;;;;;;0.00;0.00;;;;;;;6.23;83.30;101163.84;5976687;23;20015;-78
2022/12/06 09:29:15;;;;;;;0.00;0.00;;;;;;;6.28;83.01;101174.88;6172419;23;20013;-80
2022/12/06 09:31:48;;;;;;;0.00;0.00;;;;;;;6.29;82.40;101181.97;6152718;23;20154;-77
2022/12/06 09:34:16;;;;;;;0.00;0.00;;;;;;;6.33;81.86;101194.06;6182019;23;20109;-81
2022/12/06 09:36:50;;;;;;;0.00;0.00;;;;;;;6.36;81.61;101198.22;6152445;23;20009;-78
2022/12/06 09:39:31;;;;;;;0.10;0.10;;;;;;;6.35;82.12;101191.97;6156084;23;20048;-78
2022/12/06 09:42:10;;;;;;;0.00;0.00;;;;;;;6.36;80.22;101193.63;6154379;23;20416;-79
2022/12/06 09:44:44;;;;;;;0.00;0.00;;;;;;;6.60;80.91;101204.75;6176997;23;20023;-75
2022/12/06 09:47:13;;;;;;;0.00;0.00;;;;;;;6.74;80.89;101197.31;6180806;23;20466;-79
2022/12/06 09:50:07;;;;;;;0.00;0.00;;;;;;;6.94;80.62;101208.03;6155856;23;20004;-76
2022/12/06 09:52:54;;;;;;;0.00;0.00;;;;;;;7.15;80.35;101202.22;6180768;23;19997;-77
2022/12/06 09:55:28;;;;;;;0.00;0.00;;;;;;;7.49;79.46;101207.28;6154127;23;20013;-76
2022/12/06 09:58:23;;;;;;;0.00;0.00;;;;;;;7.61;77.95;101200.03;6149773;23;20000;-76
2022/12/06 10:01:31;;;;;;;0.00;0.00;;;;;;;7.89;76.98;101211.44;6154618;23;20005;-76
2022/12/06 10:04:32;;;;;;;0.00;0.00;;;;;;;8.03;75.44;101223.81;6152229;23;20331;-76
2022/12/06 10:07:10;;;;;;;0.00;0.00;;;;;;;8.00;75.10;101227.00;6048516;23;20341;-77
2022/12/06 10:10:02;;;;;;;0.00;0.00;;;;;;;7.91;74.43;101222.94;6093263;23;20014;-76
2022/12/06 10:12:49;;;;;;;0.00;0.00;;;;;;;7.91;74.85;101212.03;6094921;23;20409;-75
2022/12/06 10:15:31;;;;;;;0.00;0.00;;;;;;;8.24;75.74;101213.50;6096680;23;20429;-76
2022/12/06 10:18:22;;;;;;;0.00;0.00;;;;;;;8.54;73.90;101225.25;6114669;23;20006;-76
2022/12/06 10:21:15;;;;;;;0.00;0.00;;;;;;;8.62;73.33;101221.34;6099055;23;20057;-76
2022/12/06 10:23:59;;;;;;;0.00;0.00;;;;;;;8.72;72.55;101231.69;6120742;23;20013;-76
2022/12/06 10:26:45;;;;;;;0.00;0.00;;;;;;;8.64;71.16;101221.09;6122606;23;20382;-78
2022/12/06 10:29:17;;;;;;;0.00;0.00;;;;;;;8.59;70.56;101218.25;6097417;23;20009;-77
2022/12/06 10:32:09;;;;;;;0.03;0.03;;;;;;;8.43;70.48;101206.09;6121310;23;20022;-78
2022/12/06 10:34:40;;;;;;;0.00;0.00;;;;;;;8.63;71.02;101222.16;6117680;23;20825;-78
2022/12/06 10:37:27;;;;;;;0.00;0.00;;;;;;;8.64;70.39;101218.38;6124725;23;20005;-76
2022/12/06 10:40:21;;;;;;;0.00;0.00;;;;;;;8.68;70.57;101203.22;6092637;23;20177;-78
2022/12/06 10:43:01;;;;;;;0.00;0.00;;;;;;;8.85;70.51;101204.19;6117249;23;20081;-76
2022/12/06 10:49:26;;;;;;;0.00;0.00;;;;;;;9.28;69.20;101196.72;6122505;23;20017;-78
2022/12/06 10:52:04;;;;;;;0.00;0.00;;;;;;;9.73;68.88;101203.44;6066455;23;20010;-76
2022/12/06 10:54:39;;;;;;;0.00;0.00;;;;;;;10.05;67.46;101194.78;6098676;23;20045;-76
2022/12/06 10:57:19;;;;;;;0.00;0.00;;;;;;;10.44;65.68;101208.63;6098083;23;20362;-77
2022/12/06 10:59:55;;;;;;;0.00;0.00;;;;;;;10.55;64.76;101205.00;6124250;23;20137;-77
2022/12/06 11:03:08;;;;;;;0.00;0.00;;;;;;;10.74;65.01;101207.53;6098128;23;20092;-76
2022/12/06 11:05:56;;;;;;;0.00;0.00;;;;;;;11.32;63.26;101208.97;6120628;23;20006;-78
2022/12/06 11:08:45;;;;;;;0.00;0.00;;;;;;;11.97;61.68;101214.78;6143211;23;20336;-76
2022/12/06 11:11:26;;;;;;;0.00;0.00;;;;;;;12.39;60.20;101205.06;6148319;23;20009;-77
2022/12/06 11:14:32;;;;;;;0.00;0.00;;;;;;;12.51;57.86;101207.66;6150522;23;20001;-75
2022/12/06 11:17:03;;;;;;;0.00;0.00;;;;;;;12.57;57.57;101217.59;6064540;23;20457;-78
2022/12/06 11:19:37;;;;;;;0.00;0.00;;;;;;;12.32;57.88;101210.75;6141973;23;20001;-78
2022/12/06 11:22:32;;;;;;;0.00;0.00;;;;;;;12.00;58.57;101208.78;6152680;23;20017;-80
2022/12/06 11:25:28;;;;;;;0.00;0.00;;;;;;;11.65;57.81;101193.53;6150515;23;20005;-75
2022/12/06 11:28:12;;;;;;;0.00;0.00;;;;;;;11.49;58.74;101191.66;6130449;23;20010;-77
2022/12/06 11:30:37;;;;;;;0.00;0.00;;;;;;;11.57;58.70;101199.44;6149226;23;20495;-78
2022/12/06 11:33:09;;;;;;;0.00;0.00;;;;;;;11.86;58.90;101185.56;6125512;23;20092;-78
2022/12/06 11:36:15;;;;;;;;;;;;;;;;;;;;;
2022/12/06 11:38:55;;;;;;;0.00;0.00;;;;;;;12.83;57.03;101176.66;6147097;23;20084;-77
2022/12/06 11:41:35;;;;;;;0.00;0.00;;;;;;;13.05;56.52;101177.38;6154099;23;20463;-78
2022/12/06 11:44:17;;;;;;;0.00;0.00;;;;;;;13.63;55.25;101193.09;6148967;23;20329;-78
2022/12/06 11:46:53;;;;;;;0.00;0.00;;;;;;;14.06;54.47;101201.22;6153047;23;20013;-79
2022/12/06 11:49:49;;;;;;;0.00;0.00;;;;;;;13.95;52.66;101187.44;6150670;23;20013;-79
2022/12/06 11:52:22;;;;;;;0.00;0.00;;;;;;;13.91;53.02;101174.50;6127682;23;20009;-77
2022/12/06 11:55:00;;;;;;;0.00;0.00;;;;;;;13.86;52.95;101180.00;6148718;23;20001;-78
2022/12/06 11:57:33;;;;;;;0.00;0.00;;;;;;;13.61;53.70;101176.06;6154468;23;20006;-78
2022/12/06 12:00:17;;;;;;;0.00;0.00;;;;;;;13.27;53.93;101162.66;6152555;23;20082;-78
2022/12/06 12:03:13;;;;;;;0.00;0.00;;;;;;;13.23;54.45;101169.78;6149010;23;20005;-78
2022/12/06 12:05:46;;;;;;;0.00;0.00;;;;;;;13.05;55.06;101160.91;6150871;23;20026;-79
2022/12/06 12:08:18;;;;;;;0.00;0.00;;;;;;;12.98;55.37;101163.03;6106650;23;20025;-77
2022/12/06 12:10:58;;;;;;;0.00;0.00;;;;;;;12.87;55.18;101161.31;6152580;23;20056;-77
2022/12/06 12:13:46;;;;;;;0.00;0.00;;;;;;;12.63;55.16;101160.84;6151560;23;20084;-77
2022/12/06 12:16:19;;;;;;;0.00;0.00;;;;;;;12.37;56.17;101144.19;6155660;23;20002;-76
2022/12/06 12:19:26;;;;;;;0.00;0.00;;;;;;;12.40;56.46;101158.19;6157746;23;20001;-77
2022/12/06 12:21:57;;;;;;;0.00;0.00;;;;;;;12.34;55.95;101148.25;6153691;23;20012;-77
2022/12/06 12:24:44;;;;;;;0.00;0.00;;;;;;;12.45;55.88;101148.34;6148496;23;20440;-76
2022/12/06 12:27:43;;;;;;;0.00;0.00;;;;;;;12.29;54.90;101155.59;6152186;23;20281;-78
2022/12/06 12:30:20;;;;;;;0.00;0.00;;;;;;;12.17;55.28;101153.03;6153097;23;20010;-79
2022/12/06 12:32:53;;;;;;;0.00;0.00;;;;;;;11.95;54.32;101122.94;6149173;23;20687;-76
2022/12/06 12:35:29;;;;;;;;;;;;;;;;;;;;;
2022/12/06 12:37:59;;;;;;;0.00;0.00;;;;;;;12.07;54.70;101131.00;6145815;23;20068;-76
2022/12/06 12:40:37;;;;;;;0.00;0.00;;;;;;;11.83;53.97;101103.88;6150191;23;20690;-76
2022/12/06 12:43:12;;;;;;;0.00;0.00;;;;;;;12.08;54.06;101135.41;6147581;23;20001;-77
2022/12/06 12:46:09;;;;;;;;;;;;;;;;;;;;;
2022/12/06 12:48:37;;;;;;;0.00;0.00;;;;;;;11.91;53.44;101122.56;6148716;23;19999;-76
2022/12/06 12:51:06;;;;;;;0.00;0.00;;;;;;;12.09;54.89;101123.34;6152806;23;20001;-76